createdAt,value
2018-10-07T00:01:49.847Z,40.50
2018-10-07T00:04:18.113Z,41.33
2018-10-07T00:06:46.371Z,42.67
2018-10-07T00:09:14.643Z,41.17
2018-10-07T00:11:43.196Z,42.03
2018-10-07T00:14:11.501Z,42.00
2018-10-07T00:16:39.785Z,43.07
2018-10-07T00:19:08.017Z,42.23
2018-10-07T00:21:36.292Z,44.07
2018-10-07T00:24:04.561Z,42.93
2018-10-07T00:26:32.813Z,45.97
2018-10-07T00:29:01.105Z,44.13
2018-10-07T00:31:30.267Z,42.57
2018-10-07T00:33:58.561Z,45.67
2018-10-07T00:36:26.859Z,46.57
2018-10-07T00:38:55.148Z,43.67
2018-10-07T00:41:23.394Z,31.90
2018-10-07T00:43:51.689Z,27.33
2018-10-07T00:46:19.949Z,23.57
2018-10-07T00:48:48.245Z,24.20
2018-10-07T00:51:16.545Z,19.07
2018-10-07T00:53:44.808Z,18.53
2018-10-07T00:56:13.082Z,16.00
2018-10-07T00:58:41.380Z,14.90
2018-10-07T01:01:09.653Z,13.57
2018-10-07T01:03:38.014Z,13.40
2018-10-07T01:06:06.296Z,12.20
2018-10-07T01:08:34.625Z,12.03
2018-10-07T01:11:02.873Z,12.17
2018-10-07T01:13:31.205Z,11.40
2018-10-07T01:15:59.546Z,10.63
2018-10-07T01:18:27.889Z,11.60
2018-10-07T01:20:56.209Z,10.80
2018-10-07T01:23:24.486Z,10.93
2018-10-07T01:25:52.793Z,10.93
2018-10-07T01:28:21.057Z,10.33
2018-10-07T01:30:49.365Z,9.80
2018-10-07T01:33:17.645Z,9.63
2018-10-07T01:35:45.970Z,8.80
2018-10-07T01:38:14.657Z,7.90
2018-10-07T01:40:42.965Z,7.53
2018-10-07T01:43:11.270Z,7.70
2018-10-07T01:45:39.597Z,7.40
2018-10-07T01:48:07.914Z,6.87
2018-10-07T01:50:36.188Z,6.40
2018-10-07T01:53:04.439Z,4.53
2018-10-07T01:55:32.741Z,4.00
2018-10-07T01:58:01.005Z,3.63
2018-10-07T02:00:29.291Z,3.00
2018-10-07T02:02:57.542Z,2.77
2018-10-07T02:05:25.829Z,2.13
2018-10-07T02:07:54.128Z,1.70
2018-10-07T02:10:22.405Z,1.50
2018-10-07T02:12:50.661Z,1.33
2018-10-07T02:15:18.959Z,1.10
2018-10-07T02:17:47.218Z,1.37
2018-10-07T02:20:15.518Z,1.10
2018-10-07T02:22:43.745Z,1.23
2018-10-07T02:25:12.041Z,1.10
2018-10-07T02:27:40.332Z,1.20
2018-10-07T02:30:08.617Z,1.00
2018-10-07T02:32:36.864Z,1.40
2018-10-07T02:35:05.264Z,1.20
2018-10-07T02:37:33.505Z,1.00
2018-10-07T02:40:01.828Z,1.00
2018-10-07T02:42:30.073Z,1.20
2018-10-07T02:44:58.312Z,1.13
2018-10-07T02:47:26.670Z,1.00
2018-10-07T02:49:55.039Z,1.10
2018-10-07T02:52:28.770Z,1.10
2018-10-07T02:54:57.131Z,0.90
2018-10-07T02:57:25.982Z,1.10
2018-10-07T02:59:54.298Z,1.00
2018-10-07T03:02:22.618Z,1.00
2018-10-07T03:04:50.960Z,1.20
2018-10-07T03:07:19.219Z,1.40
2018-10-07T03:09:47.498Z,1.17
2018-10-07T03:12:15.825Z,1.30
2018-10-07T03:14:44.098Z,1.20
2018-10-07T03:17:12.399Z,1.37
2018-10-07T03:19:40.828Z,1.30
2018-10-07T03:22:09.147Z,1.10
2018-10-07T03:24:37.413Z,1.37
2018-10-07T03:27:05.743Z,1.40
2018-10-07T03:29:34.053Z,1.50
2018-10-07T03:32:02.343Z,1.83
2018-10-07T03:34:30.619Z,1.30
2018-10-07T03:36:58.912Z,1.60
2018-10-07T03:39:27.180Z,1.70
2018-10-07T03:41:55.499Z,2.10
2018-10-07T03:44:23.788Z,1.60
2018-10-07T03:46:52.068Z,1.90
2018-10-07T03:49:20.381Z,1.70
2018-10-07T03:51:48.644Z,2.00
2018-10-07T03:54:16.971Z,1.93
2018-10-07T03:56:45.309Z,1.90
2018-10-07T03:59:13.591Z,1.90
2018-10-07T04:01:41.923Z,2.20
2018-10-07T04:04:10.219Z,2.17
2018-10-07T04:06:38.523Z,1.70
2018-10-07T04:09:08.411Z,2.07
2018-10-07T04:11:36.720Z,1.97
2018-10-07T04:14:05.031Z,1.90
2018-10-07T04:16:33.382Z,1.87
2018-10-07T04:19:01.706Z,1.80
2018-10-07T04:21:29.997Z,1.80
2018-10-07T04:23:58.270Z,1.90
2018-10-07T04:26:26.590Z,1.60
2018-10-07T04:28:54.945Z,1.93
2018-10-07T04:31:23.677Z,1.77
2018-10-07T04:33:52.068Z,1.27
2018-10-07T04:36:20.445Z,1.70
2018-10-07T04:38:48.736Z,1.47
2018-10-07T04:41:17.072Z,1.73
2018-10-07T04:43:45.409Z,1.77
2018-10-07T04:46:13.694Z,1.60
2018-10-07T04:48:41.994Z,1.50
2018-10-07T04:51:10.304Z,1.40
2018-10-07T04:53:38.619Z,1.60
2018-10-07T04:56:06.894Z,1.93
2018-10-07T04:58:35.158Z,1.73
2018-10-07T05:01:03.460Z,1.90
2018-10-07T05:03:31.719Z,1.57
2018-10-07T05:06:00.088Z,1.70
2018-10-07T05:08:28.439Z,1.93
2018-10-07T05:11:03.389Z,1.90
2018-10-07T05:13:40.343Z,1.70
2018-10-07T05:16:08.726Z,1.70
2018-10-07T05:18:37.131Z,2.63
2018-10-07T05:21:05.518Z,1.97
2018-10-07T05:23:33.871Z,2.03
2018-10-07T05:26:02.169Z,2.00
2018-10-07T05:28:30.515Z,2.20
2018-10-07T05:30:58.772Z,1.73
2018-10-07T05:33:27.112Z,1.77
2018-10-07T05:35:55.472Z,1.80
2018-10-07T05:38:23.779Z,1.97
2018-10-07T05:40:52.121Z,1.83
2018-10-07T05:43:20.400Z,1.93
2018-10-07T05:45:48.716Z,1.80
2018-10-07T05:48:16.992Z,1.67
2018-10-07T05:50:45.355Z,2.13
2018-10-07T05:53:13.619Z,1.70
2018-10-07T05:55:41.907Z,1.87
2018-10-07T05:58:10.221Z,2.03
2018-10-07T06:00:38.667Z,1.90
2018-10-07T06:03:13.943Z,1.83
2018-10-07T06:05:42.270Z,1.83
2018-10-07T06:08:11.417Z,2.00
2018-10-07T06:10:39.748Z,1.80
2018-10-07T06:13:08.087Z,2.20
2018-10-07T06:15:38.269Z,1.70
2018-10-07T06:18:06.875Z,1.87
2018-10-07T06:20:35.220Z,1.60
2018-10-07T06:23:03.825Z,1.50
2018-10-07T06:25:32.212Z,1.60
2018-10-07T06:28:00.513Z,1.63
2018-10-07T06:30:29.014Z,2.20
2018-10-07T06:32:57.359Z,1.63
2018-10-07T06:35:26.183Z,1.87
2018-10-07T06:37:55.375Z,1.73
2018-10-07T06:40:23.736Z,1.40
2018-10-07T06:42:52.056Z,1.60
2018-10-07T06:45:20.415Z,1.60
2018-10-07T06:47:48.743Z,1.60
2018-10-07T06:50:17.061Z,1.87
2018-10-07T06:52:45.427Z,1.87
2018-10-07T06:55:13.714Z,1.43
2018-10-07T06:57:41.981Z,1.50
2018-10-07T07:00:10.327Z,1.60
2018-10-07T07:02:38.711Z,2.07
2018-10-07T07:05:07.012Z,1.70
2018-10-07T07:07:35.314Z,1.77
2018-10-07T07:10:03.638Z,1.50
2018-10-07T07:12:32.056Z,1.40
2018-10-07T07:15:00.371Z,1.37
2018-10-07T07:17:28.664Z,1.60
2018-10-07T07:19:56.998Z,1.60
2018-10-07T07:22:25.303Z,1.37
2018-10-07T07:24:53.695Z,1.43
2018-10-07T07:27:22.055Z,1.67
2018-10-07T07:29:50.355Z,1.30
2018-10-07T07:32:18.658Z,1.60
2018-10-07T07:34:46.976Z,1.83
2018-10-07T07:37:15.284Z,1.40
2018-10-07T07:39:43.540Z,1.40
2018-10-07T07:42:11.850Z,1.13
2018-10-07T07:44:40.154Z,1.50
2018-10-07T07:47:08.525Z,1.30
2018-10-07T07:49:36.808Z,1.20
2018-10-07T07:52:05.234Z,1.03
2018-10-07T07:54:33.740Z,1.33
2018-10-07T07:57:02.150Z,1.30
2018-10-07T07:59:30.530Z,1.40
2018-10-07T08:01:58.847Z,1.30
2018-10-07T08:04:27.837Z,1.47
2018-10-07T08:06:56.243Z,1.57
2018-10-07T08:09:24.592Z,1.40
2018-10-07T08:11:52.876Z,1.40
2018-10-07T08:14:21.172Z,1.60
2018-10-07T08:16:49.495Z,1.40
2018-10-07T08:19:17.791Z,1.30
2018-10-07T08:21:46.076Z,1.60
2018-10-07T08:24:14.383Z,1.50
2018-10-07T08:26:42.772Z,1.40
2018-10-07T08:29:11.635Z,1.63
2018-10-07T08:31:39.959Z,1.60
2018-10-07T08:34:08.292Z,2.60
2018-10-07T08:36:36.566Z,1.40
2018-10-07T08:39:07.348Z,2.17
2018-10-07T08:41:35.704Z,1.87
2018-10-07T08:44:04.031Z,1.70
2018-10-07T08:46:32.547Z,1.60
2018-10-07T08:49:00.864Z,1.60
2018-10-07T08:51:29.182Z,1.63
2018-10-07T08:53:57.536Z,1.90
2018-10-07T08:56:26.015Z,1.50
2018-10-07T08:58:54.459Z,1.60
2018-10-07T09:01:22.922Z,1.50
2018-10-07T09:03:51.500Z,1.93
2018-10-07T09:06:19.896Z,1.50
2018-10-07T09:08:48.384Z,1.70
2018-10-07T09:11:16.787Z,1.47
2018-10-07T09:13:45.121Z,1.60
2018-10-07T09:16:13.445Z,1.80
2018-10-07T09:18:41.772Z,1.83
2018-10-07T09:21:10.152Z,1.60
2018-10-07T09:23:38.453Z,1.70
2018-10-07T09:26:06.791Z,1.77
2018-10-07T09:28:35.363Z,2.23
2018-10-07T09:31:03.717Z,2.07
2018-10-07T09:33:32.387Z,2.00
2018-10-07T09:36:00.759Z,1.60
2018-10-07T09:38:29.144Z,1.83
2018-10-07T09:40:57.555Z,2.33
2018-10-07T09:43:25.921Z,1.60
2018-10-07T09:45:54.195Z,1.63
2018-10-07T09:48:22.548Z,1.70
2018-10-07T09:50:50.885Z,1.63
2018-10-07T09:53:19.254Z,2.37
2018-10-07T09:55:47.682Z,1.73
2018-10-07T09:58:15.935Z,2.00
2018-10-07T10:00:44.215Z,1.80
2018-10-07T10:03:12.786Z,1.53
2018-10-07T10:05:41.067Z,1.47
2018-10-07T10:08:09.735Z,1.90
2018-10-07T10:10:38.159Z,1.90
2018-10-07T10:13:06.545Z,2.00
2018-10-07T10:15:35.015Z,1.60
2018-10-07T10:18:06.836Z,2.10
2018-10-07T10:20:44.146Z,1.80
2018-10-07T10:23:17.900Z,1.57
2018-10-07T10:28:02.388Z,2.03
2018-10-07T10:30:41.991Z,1.73
2018-10-07T10:33:29.499Z,1.83
2018-10-07T10:36:05.451Z,1.50
2018-10-07T10:38:44.042Z,1.90
2018-10-07T10:41:22.045Z,1.90
2018-10-07T10:43:59.400Z,2.43
2018-10-07T10:46:31.684Z,1.43
2018-10-07T10:49:06.843Z,1.53
2018-10-07T10:51:58.547Z,1.70
2018-10-07T10:54:33.022Z,1.50
2018-10-07T10:57:08.951Z,1.53
2018-10-07T10:59:45.927Z,1.83
2018-10-07T11:02:30.077Z,1.67
2018-10-07T11:07:12.866Z,1.63
2018-10-07T11:09:49.787Z,1.77
2018-10-07T11:12:44.722Z,1.87
2018-10-07T11:15:24.689Z,1.33
2018-10-07T11:18:04.765Z,1.83
2018-10-07T11:20:53.116Z,1.50
2018-10-07T11:23:28.919Z,1.53
2018-10-07T11:26:05.840Z,1.67
2018-10-07T11:28:44.783Z,1.67
2018-10-07T11:31:19.591Z,1.70
2018-10-07T11:34:12.891Z,1.57
2018-10-07T11:37:06.144Z,1.40
2018-10-07T11:40:47.484Z,2.00
2018-10-07T11:43:28.289Z,1.55
2018-10-07T11:46:03.263Z,1.80
2018-10-07T11:48:42.000Z,1.70
2018-10-07T11:53:28.541Z,1.55
2018-10-07T11:55:56.946Z,1.53
2018-10-07T11:58:25.410Z,1.47
2018-10-07T12:00:53.762Z,1.50
2018-10-07T12:03:22.133Z,1.50
2018-10-07T12:05:50.463Z,1.10
2018-10-07T12:08:18.866Z,1.40
2018-10-07T12:10:47.181Z,1.47
2018-10-07T12:13:15.520Z,1.53
2018-10-07T12:15:43.940Z,1.20
2018-10-07T12:18:12.458Z,1.10
2018-10-07T12:20:40.821Z,1.10
2018-10-07T12:23:09.195Z,1.70
2018-10-07T12:25:37.595Z,1.37
2018-10-07T12:28:06.174Z,1.42
2018-10-07T12:30:34.438Z,1.50
2018-10-07T12:33:02.772Z,1.30
2018-10-07T12:35:31.134Z,1.12
2018-10-07T12:37:59.410Z,1.10
2018-10-07T12:40:27.767Z,1.17
2018-10-07T12:42:56.087Z,1.30
2018-10-07T12:45:24.380Z,1.45
2018-10-07T12:47:52.797Z,1.87
2018-10-07T12:50:21.160Z,1.55
2018-10-07T12:52:50.123Z,1.60
2018-10-07T12:55:18.434Z,1.65
2018-10-07T12:57:46.767Z,1.70
2018-10-07T13:00:15.070Z,1.70
2018-10-07T13:02:43.371Z,1.70
2018-10-07T13:05:11.674Z,1.40
2018-10-07T13:07:40.052Z,2.05
2018-10-07T13:10:08.391Z,1.57
2018-10-07T13:12:36.780Z,1.60
2018-10-07T13:15:05.292Z,1.40
2018-10-07T13:17:33.911Z,1.50
2018-10-07T13:20:02.315Z,1.43
2018-10-07T13:22:30.658Z,1.40
2018-10-07T13:24:58.959Z,1.33
2018-10-07T13:27:27.364Z,1.47
2018-10-07T13:29:55.733Z,1.40
2018-10-07T13:32:24.107Z,1.27
2018-10-07T13:34:52.491Z,1.77
2018-10-07T13:37:20.814Z,2.23
2018-10-07T13:39:49.227Z,1.67
2018-10-07T13:42:17.536Z,1.50
2018-10-07T13:44:45.936Z,1.50
2018-10-07T13:47:14.312Z,1.43
2018-10-07T13:49:42.774Z,1.50
2018-10-07T13:52:11.106Z,1.50
2018-10-07T13:54:39.419Z,1.60
2018-10-07T13:57:07.766Z,1.40
2018-10-07T13:59:36.064Z,1.60
2018-10-07T14:02:04.379Z,1.30
2018-10-07T14:04:32.711Z,2.00
2018-10-07T14:07:00.999Z,1.40
2018-10-07T14:09:29.337Z,1.47
2018-10-07T14:11:57.641Z,1.97
2018-10-07T14:14:25.974Z,1.53
2018-10-07T14:16:54.339Z,1.83
2018-10-07T14:19:22.687Z,1.60
2018-10-07T14:21:51.051Z,1.50
2018-10-07T14:24:19.347Z,1.60
2018-10-07T14:26:47.695Z,1.90
2018-10-07T14:29:16.058Z,2.00
2018-10-07T14:31:44.416Z,1.70
2018-10-07T14:34:12.918Z,1.50
2018-10-07T14:36:41.276Z,1.63
2018-10-07T14:39:11.403Z,1.83
2018-10-07T14:41:39.712Z,1.67
2018-10-07T14:44:08.088Z,1.90
2018-10-07T14:46:36.450Z,1.90
2018-10-07T14:49:04.819Z,1.90
2018-10-07T14:51:33.051Z,2.17
2018-10-07T14:54:01.403Z,2.13
2018-10-07T14:56:37.413Z,1.80
2018-10-07T14:59:11.172Z,2.20
2018-10-07T15:01:39.527Z,1.77
2018-10-07T15:04:07.879Z,1.73
2018-10-07T15:06:36.283Z,1.90
2018-10-07T15:09:06.395Z,1.27
2018-10-07T15:11:34.741Z,1.70
2018-10-07T15:14:03.137Z,1.90
2018-10-07T15:16:31.483Z,2.03
2018-10-07T15:18:59.776Z,1.43
2018-10-07T15:21:28.253Z,1.97
2018-10-07T15:23:56.620Z,1.70
2018-10-07T15:26:24.932Z,1.77
2018-10-07T15:28:53.241Z,1.87
2018-10-07T15:31:21.982Z,1.70
2018-10-07T15:33:50.327Z,2.00
2018-10-07T15:36:18.726Z,1.53
2018-10-07T15:38:47.131Z,2.60
2018-10-07T15:41:15.511Z,1.83
2018-10-07T15:43:43.990Z,1.60
2018-10-07T15:46:12.475Z,1.60
2018-10-07T15:48:40.859Z,1.97
2018-10-07T15:51:09.307Z,1.53
2018-10-07T15:53:37.650Z,1.50
2018-10-07T15:56:05.959Z,1.50
2018-10-07T15:58:34.295Z,1.73
2018-10-07T16:01:02.704Z,1.73
2018-10-07T16:03:30.991Z,1.50
2018-10-07T16:05:59.297Z,1.80
2018-10-07T16:08:27.610Z,1.83
2018-10-07T16:10:55.975Z,1.77
2018-10-07T16:13:24.311Z,1.37
2018-10-07T16:15:52.743Z,1.73
2018-10-07T16:18:21.216Z,1.80
2018-10-07T16:20:49.449Z,1.93
2018-10-07T16:23:17.880Z,1.80
2018-10-07T16:25:46.260Z,1.90
2018-10-07T16:28:14.615Z,2.00
2018-10-07T16:30:42.955Z,1.80
2018-10-07T16:33:11.250Z,2.13
2018-10-07T16:35:39.692Z,1.77
2018-10-07T16:38:08.029Z,2.10
2018-10-07T16:40:36.483Z,2.17
2018-10-07T16:43:04.963Z,2.10
2018-10-07T16:45:33.298Z,2.27
2018-10-07T16:48:01.563Z,2.00
2018-10-07T16:50:29.941Z,2.47
2018-10-07T16:52:58.230Z,2.40
2018-10-07T16:55:26.885Z,2.10
2018-10-07T16:57:55.469Z,2.80
2018-10-07T17:00:23.970Z,2.13
2018-10-07T17:02:52.263Z,2.50
2018-10-07T17:05:21.035Z,2.40
2018-10-07T17:07:49.347Z,2.03
2018-10-07T17:10:17.713Z,2.20
2018-10-07T17:12:46.586Z,3.60
2018-10-07T17:15:14.839Z,3.77
2018-10-07T17:17:43.187Z,3.53
2018-10-07T17:20:11.619Z,3.17
2018-10-07T17:22:40.126Z,3.00
2018-10-07T17:25:08.490Z,3.20
2018-10-07T17:27:36.781Z,2.40
2018-10-07T17:30:05.147Z,2.67
2018-10-07T17:32:33.590Z,2.40
2018-10-07T17:35:01.971Z,2.63
2018-10-07T17:37:30.329Z,3.30
2018-10-07T17:39:58.747Z,2.93
2018-10-07T17:42:27.109Z,3.23
2018-10-07T17:44:55.619Z,3.40
2018-10-07T17:47:24.007Z,3.30
2018-10-07T17:49:52.558Z,3.90
2018-10-07T17:52:20.888Z,3.70
2018-10-07T17:54:49.241Z,2.87
2018-10-07T17:57:17.721Z,3.43
2018-10-07T17:59:46.124Z,3.17
2018-10-07T18:02:14.490Z,2.90
2018-10-07T18:04:42.847Z,3.37
2018-10-07T18:07:11.159Z,2.70
2018-10-07T18:09:39.450Z,3.10
2018-10-07T18:12:07.792Z,3.33
2018-10-07T18:14:36.112Z,3.50
2018-10-07T18:17:04.518Z,3.40
2018-10-07T18:19:32.858Z,3.97
2018-10-07T18:22:01.217Z,3.20
2018-10-07T18:24:29.532Z,3.87
2018-10-07T18:26:57.856Z,4.77
2018-10-07T18:29:26.235Z,4.73
2018-10-07T18:31:54.521Z,5.50
2018-10-07T18:34:22.916Z,5.50
2018-10-07T18:36:51.203Z,5.13
2018-10-07T18:39:19.511Z,4.47
2018-10-07T18:41:47.848Z,4.50
2018-10-07T18:44:16.135Z,4.47
2018-10-07T18:46:44.434Z,4.30
2018-10-07T18:49:12.810Z,4.53
2018-10-07T18:51:41.066Z,4.30
2018-10-07T18:54:09.527Z,4.13
2018-10-07T18:56:37.800Z,4.53
2018-10-07T18:59:06.121Z,4.87
2018-10-07T19:01:34.443Z,4.63
2018-10-07T19:04:02.927Z,4.23
2018-10-07T19:06:31.404Z,4.50
2018-10-07T19:08:59.708Z,4.77
2018-10-07T19:11:28.039Z,5.50
2018-10-07T19:13:56.339Z,6.17
2018-10-07T19:16:24.636Z,5.00
2018-10-07T19:18:52.931Z,5.03
2018-10-07T19:21:21.360Z,5.77
2018-10-07T19:23:49.859Z,5.40
2018-10-07T19:26:18.322Z,5.83
2018-10-07T19:28:46.610Z,5.70
2018-10-07T19:31:14.916Z,6.73
2018-10-07T19:33:43.210Z,6.10
2018-10-07T19:36:11.467Z,6.10
2018-10-07T19:38:39.776Z,5.80
2018-10-07T19:41:08.120Z,5.87
2018-10-07T19:43:36.399Z,6.77
2018-10-07T19:46:04.779Z,6.47
2018-10-07T19:48:33.167Z,6.63
2018-10-07T19:51:01.488Z,7.20
2018-10-07T19:53:29.754Z,8.03
2018-10-07T19:55:58.111Z,8.60
2018-10-07T19:58:26.655Z,7.73
2018-10-07T20:00:55.271Z,9.70
2018-10-07T20:03:23.721Z,9.20
2018-10-07T20:05:52.079Z,8.60
2018-10-07T20:08:20.495Z,8.27
2018-10-07T20:10:48.784Z,8.40
2018-10-07T20:13:17.116Z,8.10
2018-10-07T20:15:45.504Z,7.80
2018-10-07T20:18:13.914Z,9.07
2018-10-07T20:20:42.363Z,8.23
2018-10-07T20:23:10.682Z,9.03
2018-10-07T20:25:39.023Z,10.20
2018-10-07T20:28:07.311Z,9.77
2018-10-07T20:30:35.787Z,10.07
2018-10-07T20:33:04.095Z,10.30
2018-10-07T20:35:32.573Z,10.53
2018-10-07T20:38:00.891Z,9.93
2018-10-07T20:40:29.440Z,10.00
2018-10-07T20:42:57.657Z,10.13
2018-10-07T20:45:25.978Z,11.20
2018-10-07T20:47:54.431Z,10.90
2018-10-07T20:50:25.332Z,11.87
2018-10-07T20:52:51.121Z,11.23
2018-10-07T20:55:19.409Z,11.07
2018-10-07T20:57:47.807Z,10.33
2018-10-07T21:00:16.123Z,10.83
2018-10-07T21:02:44.495Z,10.90
2018-10-07T21:05:12.807Z,11.03
2018-10-07T21:07:41.110Z,11.53
2018-10-07T21:10:09.412Z,10.90
2018-10-07T21:12:37.737Z,12.03
2018-10-07T21:15:06.192Z,10.53
2018-10-07T21:17:34.584Z,12.33
2018-10-07T21:20:02.977Z,12.70
2018-10-07T21:22:31.447Z,12.33
2018-10-07T21:25:00.403Z,11.50
2018-10-07T21:27:28.835Z,12.17
2018-10-07T21:29:57.159Z,12.27
2018-10-07T21:32:25.490Z,12.40
2018-10-07T21:34:53.814Z,12.47
2018-10-07T21:37:22.406Z,11.90
2018-10-07T21:39:50.728Z,13.50
2018-10-07T21:42:19.086Z,12.67
2018-10-07T21:44:47.659Z,12.07
2018-10-07T21:47:18.319Z,12.40
2018-10-07T21:49:46.684Z,12.50
2018-10-07T21:52:14.927Z,12.20
2018-10-07T21:54:43.195Z,12.50
2018-10-07T21:57:11.500Z,11.60
2018-10-07T21:59:39.803Z,12.03
2018-10-07T22:02:08.091Z,13.30
2018-10-07T22:04:36.367Z,13.03
2018-10-07T22:07:04.813Z,14.43
2018-10-07T22:09:33.153Z,14.57
2018-10-07T22:12:01.495Z,13.63
2018-10-07T22:14:29.775Z,14.43
2018-10-07T22:16:58.046Z,14.57
2018-10-07T22:19:26.429Z,15.20
2018-10-07T22:21:54.707Z,14.40
2018-10-07T22:24:23.011Z,15.50
2018-10-07T22:26:51.359Z,15.30
2018-10-07T22:29:19.643Z,14.87
2018-10-07T22:31:47.910Z,14.60
2018-10-07T22:34:16.396Z,13.50
2018-10-07T22:36:44.755Z,13.73
2018-10-07T22:39:13.051Z,14.50
2018-10-07T22:41:41.329Z,14.73
2018-10-07T22:44:09.630Z,14.63
2018-10-07T22:46:37.907Z,14.37
2018-10-07T22:49:06.314Z,14.20
2018-10-07T22:51:34.603Z,14.10
2018-10-07T22:54:02.919Z,13.57
2018-10-07T22:56:31.197Z,14.53
2018-10-07T22:58:59.467Z,13.27
2018-10-07T23:01:27.848Z,14.33
2018-10-07T23:03:56.132Z,13.57
2018-10-07T23:06:24.422Z,13.33
2018-10-07T23:08:52.732Z,12.53
2018-10-07T23:11:21.008Z,14.47
2018-10-07T23:13:49.282Z,12.93
2018-10-07T23:16:17.582Z,14.07
2018-10-07T23:18:45.876Z,13.57
2018-10-07T23:21:14.159Z,13.33
2018-10-07T23:23:42.439Z,13.40
2018-10-07T23:26:10.740Z,12.70
2018-10-07T23:28:38.998Z,12.07
2018-10-07T23:31:07.387Z,13.40
2018-10-07T23:33:35.728Z,13.10
2018-10-07T23:36:04.027Z,12.77
2018-10-07T23:38:32.367Z,12.30
2018-10-07T23:41:00.671Z,12.10
2018-10-07T23:43:28.960Z,11.30
2018-10-07T23:45:57.264Z,11.07
2018-10-07T23:48:25.610Z,11.93
2018-10-07T23:50:53.892Z,11.60
2018-10-07T23:53:22.239Z,11.70
2018-10-07T23:55:50.547Z,10.70
2018-10-07T23:58:18.823Z,10.57
